Time;durP1;ratioP1;P1;durP2;ratioP2;P2;SDS_P1;SDS_P2;PMS_P1;PMS_P2;Temp;Humidity;BMP_temperature;BMP_pressure;BME280_temperature;BME280_humidity;BME280_pressure;Samples;Min_cycle;Max_cycle;Signal;HPM_P1;HPM_P2
2022/12/25 00:01:48;;;;;;;11.50;2.20;;;;;;;;;;106901;1301;22089;-78
2022/12/25 00:04:14;;;;;;;7.80;2.40;;;;;;;;;;106830;1308;22086;-77
2022/12/25 00:06:41;;;;;;;11.70;2.40;;;;;;;;;;106851;1310;22853;-76
2022/12/25 00:09:08;;;;;;;9.30;2.70;;;;;;;;;;106871;1308;22819;-77
2022/12/25 00:11:35;;;;;;;13.10;3.70;;;;;;;;;;106852;1310;22079;-77
2022/12/25 00:14:02;;;;;;;11.80;2.70;;;;;;;;;;106853;1308;22094;-78
2022/12/25 00:16:29;;;;;;;11.30;2.40;;;;;;;;;;106836;1302;22083;-78
2022/12/25 00:18:57;;;;;;;10.30;1.90;;;;;;;;;;106906;1305;22547;-78
2022/12/25 00:21:24;;;;;;;9.20;2.00;;;;;;;;;;106688;1307;21904;-77
2022/12/25 00:23:54;;;;;;;9.70;2.10;;;;;;;;;;106909;1299;22664;-76
2022/12/25 00:26:22;;;;;;;8.30;1.90;;;;;;;;;;106649;1309;22062;-77
2022/12/25 00:28:52;;;;;;;9.00;2.20;;;;;;;;;;106865;1308;22092;-77
2022/12/25 00:31:19;;;;;;;10.90;2.30;;;;;;;;;;106842;1310;22054;-78
2022/12/25 00:33:47;;;;;;;11.70;2.00;;;;;;;;;;106645;1303;22068;-78
2022/12/25 00:36:15;;;;;;;10.30;3.00;;;;;;;;;;106871;1302;22121;-78
2022/12/25 00:38:42;;;;;;;9.40;1.70;;;;;;;;;;106830;1302;21983;-78
2022/12/25 00:41:11;;;;;;;11.10;2.30;;;;;;;;;;106837;1307;22405;-77
2022/12/25 00:43:40;;;;;;;10.80;2.60;;;;;;;;;;106919;1305;22074;-77
2022/12/25 00:46:08;;;;;;;15.20;2.80;;;;;;;;;;106847;1307;22095;-78
2022/12/25 00:48:35;;;;;;;16.10;2.50;;;;;;;;;;106692;1302;22105;-76
2022/12/25 00:51:03;;;;;;;10.60;2.20;;;;;;;;;;106851;1309;22112;-75
2022/12/25 00:53:31;;;;;;;8.20;1.90;;;;;;;;;;106706;1308;22080;-77
2022/12/25 00:55:59;;;;;;;8.40;1.60;;;;;;;;;;106847;1307;22806;-77
2022/12/25 00:58:28;;;;;;;8.60;1.90;;;;;;;;;;106905;1307;22835;-78
2022/12/25 01:00:55;;;;;;;9.80;2.40;;;;;;;;;;106858;1308;22532;-78
2022/12/25 01:03:22;;;;;;;10.30;2.20;;;;;;;;;;106750;1308;22128;-77
2022/12/25 01:05:53;;;;;;;13.60;2.80;;;;;;;;;;106740;1310;22700;-77
2022/12/25 01:08:21;;;;;;;13.10;3.30;;;;;;;;;;106686;1310;22183;-77
2022/12/25 01:10:58;;;;;;;11.50;3.10;;;;;;;;;;106697;1309;22093;-77
2022/12/25 01:13:26;;;;;;;10.20;2.20;;;;;;;;;;106771;1309;22697;-77
2022/12/25 01:15:53;;;;;;;9.60;2.60;;;;;;;;;;106696;1309;22106;-78
2022/12/25 01:18:21;;;;;;;11.60;2.80;;;;;;;;;;106849;1307;22058;-78
2022/12/25 01:20:48;;;;;;;11.80;2.50;;;;;;;;;;106767;1309;22774;-77
2022/12/25 01:23:16;;;;;;;11.90;2.70;;;;;;;;;;106858;1292;22107;-77
2022/12/25 01:25:43;;;;;;;13.50;3.20;;;;;;;;;;106824;1308;22003;-78
2022/12/25 01:28:11;;;;;;;10.90;3.60;;;;;;;;;;106622;1309;22026;-76
2022/12/25 01:30:38;;;;;;;13.10;4.00;;;;;;;;;;106662;1310;21944;-77
2022/12/25 01:33:06;;;;;;;9.30;2.70;;;;;;;;;;106761;1310;22017;-78
2022/12/25 01:35:33;;;;;;;14.20;3.30;;;;;;;;;;106770;1309;22051;-77
2022/12/25 01:38:00;;;;;;;12.40;2.90;;;;;;;;;;106821;1301;22076;-77
2022/12/25 01:40:27;;;;;;;11.90;3.20;;;;;;;;;;106865;1308;22131;-78
2022/12/25 01:42:54;;;;;;;10.80;3.40;;;;;;;;;;106848;1308;22028;-77
2022/12/25 01:45:21;;;;;;;11.00;2.80;;;;;;;;;;106858;1293;22734;-77
2022/12/25 01:47:48;;;;;;;11.40;3.00;;;;;;;;;;106695;1309;22756;-77
2022/12/25 01:50:15;;;;;;;14.40;3.30;;;;;;;;;;106695;1310;21946;-78
2022/12/25 01:52:43;;;;;;;11.20;2.70;;;;;;;;;;106717;1310;22055;-78
2022/12/25 01:55:12;;;;;;;11.30;3.10;;;;;;;;;;106707;1308;22062;-78
2022/12/25 01:57:41;;;;;;;11.50;3.00;;;;;;;;;;106800;1307;22076;-78
2022/12/25 02:00:10;;;;;;;12.00;3.00;;;;;;;;;;106839;1308;22067;-78
2022/12/25 02:02:40;;;;;;;13.40;3.10;;;;;;;;;;106714;1310;22595;-78
2022/12/25 02:05:18;;;;;;;13.00;3.40;;;;;;;;;;106722;1302;22720;-78
2022/12/25 02:07:47;;;;;;;15.10;3.90;;;;;;;;;;106711;1310;22060;-77
2022/12/25 02:10:15;;;;;;;13.60;3.70;;;;;;;;;;106687;1310;22787;-78
2022/12/25 02:12:43;;;;;;;12.90;3.50;;;;;;;;;;106654;1310;22129;-78
2022/12/25 02:15:13;;;;;;;11.80;2.90;;;;;;;;;;106691;1309;22063;-77
2022/12/25 02:18:04;;;;;;;11.30;3.00;;;;;;;;;;106680;1310;22039;-77
2022/12/25 02:20:41;;;;;;;12.90;3.20;;;;;;;;;;106855;1309;22750;-77
2022/12/25 02:23:09;;;;;;;14.00;3.30;;;;;;;;;;106854;1305;22058;-77
2022/12/25 02:25:49;;;;;;;11.40;3.10;;;;;;;;;;106861;1310;22017;-78
2022/12/25 02:28:38;;;;;;;12.10;3.10;;;;;;;;;;106753;1309;22082;-77
2022/12/25 02:31:26;;;;;;;11.30;2.90;;;;;;;;;;106632;1309;22108;-78
2022/12/25 02:34:03;;;;;;;15.10;3.00;;;;;;;;;;106719;1309;22762;-77
2022/12/25 02:36:37;;;;;;;14.40;3.40;;;;;;;;;;106625;1310;22079;-78
2022/12/25 02:41:57;;;;;;;13.80;3.10;;;;;;;;;;106859;1309;22355;-78
2022/12/25 03:06:58;;;;;;;14.40;4.50;;;;;;;;;;106636;1310;22120;-78
2022/12/25 03:12:20;;;;;;;15.70;5.30;;;;;;;;;;106638;1311;22096;-78
2022/12/25 03:17:36;;;;;;;14.80;4.10;;;;;;;;;;106603;1300;22115;-78
2022/12/25 03:28:27;;;;;;;13.60;4.20;;;;;;;;;;106675;1307;22874;-78
2022/12/25 03:31:12;;;;;;;14.00;4.40;;;;;;;;;;106573;1312;22058;-78
2022/12/25 03:43:15;;;;;;;14.80;5.80;;;;;;;;;;106630;1313;22094;-78
2022/12/25 04:37:49;;;;;;;14.50;5.00;;;;;;;;;;103457;1307;24266;-83
2022/12/25 04:40:16;;;;;;;12.60;5.10;;;;;;;;;;103452;1307;24265;-81
2022/12/25 04:42:42;;;;;;;14.80;5.20;;;;;;;;;;103294;1307;25473;-83
2022/12/25 04:45:10;;;;;;;12.10;5.10;;;;;;;;;;103296;1304;22508;-82
2022/12/25 04:47:37;;;;;;;15.80;5.00;;;;;;;;;;103461;1307;22584;-82
2022/12/25 04:50:04;;;;;;;11.40;5.50;;;;;;;;;;103462;1307;22489;-78
2022/12/25 04:52:36;;;;;;;13.80;5.60;;;;;;;;;;103465;1307;24362;-84
2022/12/25 04:55:04;;;;;;;16.30;5.30;;;;;;;;;;103209;1307;22549;-82
2022/12/25 04:57:31;;;;;;;10.00;4.50;;;;;;;;;;103429;1307;24210;-83
2022/12/25 04:59:58;;;;;;;13.90;4.60;;;;;;;;;;103236;1307;22490;-83
2022/12/25 05:02:25;;;;;;;14.30;5.50;;;;;;;;;;103427;1305;25291;-78
2022/12/25 05:04:52;;;;;;;14.40;4.90;;;;;;;;;;103350;1307;22465;-85
2022/12/25 05:07:19;;;;;;;13.50;4.70;;;;;;;;;;103055;1310;26575;-82
2022/12/25 05:09:46;;;;;;;15.00;4.60;;;;;;;;;;103137;1310;22485;-80
2022/12/25 05:12:13;;;;;;;14.30;4.90;;;;;;;;;;103139;1310;22496;-83
2022/12/25 05:14:40;;;;;;;12.70;5.10;;;;;;;;;;103277;1310;22474;-79
2022/12/25 05:17:08;;;;;;;13.10;5.40;;;;;;;;;;103113;1305;24426;-84
2022/12/25 05:19:34;;;;;;;13.30;4.60;;;;;;;;;;103295;1309;22482;-80
2022/12/25 05:22:01;;;;;;;14.50;5.30;;;;;;;;;;103298;1310;22492;-83
2022/12/25 05:24:28;;;;;;;13.60;4.70;;;;;;;;;;103056;1297;22418;-79
2022/12/25 05:26:55;;;;;;;14.80;5.70;;;;;;;;;;103120;1304;22464;-78
2022/12/25 05:29:22;;;;;;;15.30;5.70;;;;;;;;;;103102;1310;23889;-79
2022/12/25 05:31:49;;;;;;;17.90;6.50;;;;;;;;;;103011;1305;22455;-83
2022/12/25 05:34:16;;;;;;;19.70;7.40;;;;;;;;;;103049;1309;22485;-82
2022/12/25 05:36:42;;;;;;;19.90;7.80;;;;;;;;;;103230;1310;24183;-83
2022/12/25 05:39:09;;;;;;;20.50;8.00;;;;;;;;;;103305;1310;24532;-79
2022/12/25 05:41:36;;;;;;;16.80;6.80;;;;;;;;;;103304;1307;22490;-79
2022/12/25 05:44:05;;;;;;;14.30;5.10;;;;;;;;;;103321;1307;24324;-81
2022/12/25 05:46:31;;;;;;;15.20;4.60;;;;;;;;;;103250;1310;25303;-79
2022/12/25 05:48:58;;;;;;;13.50;4.10;;;;;;;;;;103246;1303;22453;-83
2022/12/25 05:51:25;;;;;;;11.80;4.10;;;;;;;;;;103304;1310;24336;-79
2022/12/25 05:53:52;;;;;;;12.30;4.50;;;;;;;;;;103084;1310;24263;-79
2022/12/25 05:56:19;;;;;;;10.20;4.30;;;;;;;;;;103306;1308;25204;-83
2022/12/25 05:58:46;;;;;;;12.00;4.10;;;;;;;;;;103244;1301;22471;-83
2022/12/25 06:01:15;;;;;;;14.30;5.00;;;;;;;;;;103265;1310;22461;-85
2022/12/25 06:03:42;;;;;;;12.20;4.60;;;;;;;;;;103105;1310;24314;-81
2022/12/25 06:06:09;;;;;;;13.40;4.70;;;;;;;;;;103184;1310;23721;-85
2022/12/25 06:08:36;;;;;;;11.20;4.50;;;;;;;;;;103224;1310;24347;-79
2022/12/25 06:11:04;;;;;;;11.60;4.40;;;;;;;;;;103117;1310;22488;-79
2022/12/25 06:13:32;;;;;;;12.30;4.40;;;;;;;;;;103024;1311;22462;-85
2022/12/25 06:16:02;;;;;;;13.80;4.30;;;;;;;;;;103135;1301;22464;-83
2022/12/25 06:18:28;;;;;;;12.80;4.50;;;;;;;;;;103255;1310;22479;-81
2022/12/25 06:20:55;;;;;;;12.00;4.50;;;;;;;;;;103345;1310;25351;-79
2022/12/25 06:23:22;;;;;;;12.60;5.10;;;;;;;;;;103384;1304;25319;-79
2022/12/25 06:25:49;;;;;;;12.80;4.80;;;;;;;;;;103436;1304;22477;-83
2022/12/25 06:28:16;;;;;;;12.00;4.30;;;;;;;;;;103369;1307;22482;-79
2022/12/25 06:30:43;;;;;;;12.50;4.50;;;;;;;;;;103510;1307;25369;-82
2022/12/25 06:33:10;;;;;;;13.70;4.20;;;;;;;;;;103486;1307;24432;-83
2022/12/25 06:35:38;;;;;;;12.70;5.00;;;;;;;;;;103522;1307;24384;-79
2022/12/25 06:38:05;;;;;;;13.30;5.60;;;;;;;;;;103590;1304;22458;-80
2022/12/25 06:40:33;;;;;;;15.60;5.90;;;;;;;;;;103579;1304;22535;-83
2022/12/25 06:43:00;;;;;;;12.80;5.50;;;;;;;;;;103557;1304;22459;-82
2022/12/25 06:45:27;;;;;;;17.10;4.70;;;;;;;;;;103801;1298;22468;-82
2022/12/25 06:47:53;;;;;;;14.90;5.00;;;;;;;;;;103527;1305;25301;-82
2022/12/25 06:50:20;;;;;;;17.10;6.20;;;;;;;;;;103349;1307;22532;-82
2022/12/25 06:52:47;;;;;;;15.00;5.50;;;;;;;;;;103495;1307;26525;-78
2022/12/25 06:55:14;;;;;;;16.50;6.20;;;;;;;;;;103467;1294;22835;-85
2022/12/25 06:57:40;;;;;;;16.60;6.70;;;;;;;;;;103517;1293;22475;-78
2022/12/25 07:00:07;;;;;;;18.50;8.30;;;;;;;;;;103567;1304;22467;-81
2022/12/25 07:02:37;;;;;;;18.50;6.90;;;;;;;;;;103633;1304;24185;-82
2022/12/25 07:05:04;;;;;;;19.30;6.20;;;;;;;;;;103533;1304;22481;-80
2022/12/25 07:07:31;;;;;;;20.00;7.90;;;;;;;;;;103554;1307;24247;-83
2022/12/25 07:09:58;;;;;;;31.20;13.90;;;;;;;;;;103486;1307;24260;-80
2022/12/25 07:12:24;;;;;;;25.00;12.10;;;;;;;;;;103496;1306;25543;-79
2022/12/25 07:14:53;;;;;;;24.70;10.80;;;;;;;;;;103406;1307;22468;-84
2022/12/25 07:17:20;;;;;;;14.80;7.00;;;;;;;;;;103469;1301;22453;-83
2022/12/25 07:19:47;;;;;;;15.40;5.40;;;;;;;;;;103471;1304;22457;-80
2022/12/25 07:22:15;;;;;;;12.10;4.70;;;;;;;;;;103611;1299;22474;-83
2022/12/25 07:24:42;;;;;;;12.50;4.60;;;;;;;;;;103554;1304;22474;-83
2022/12/25 07:27:09;;;;;;;12.40;4.80;;;;;;;;;;103624;1304;22590;-80
2022/12/25 07:29:35;;;;;;;14.40;4.90;;;;;;;;;;103461;1307;25197;-81
2022/12/25 07:32:02;;;;;;;19.40;6.50;;;;;;;;;;103567;1307;25361;-82
2022/12/25 07:34:29;;;;;;;17.00;5.70;;;;;;;;;;103502;1307;23293;-80
2022/12/25 07:36:56;;;;;;;15.00;5.20;;;;;;;;;;103500;1307;24123;-79
2022/12/25 07:39:22;;;;;;;14.70;5.60;;;;;;;;;;103500;1304;25365;-82
2022/12/25 07:41:50;;;;;;;12.70;5.20;;;;;;;;;;103539;1304;23889;-81
2022/12/25 07:44:16;;;;;;;15.30;4.70;;;;;;;;;;103571;1304;22474;-85
2022/12/25 07:46:43;;;;;;;12.70;4.00;;;;;;;;;;103494;1304;25305;-83
2022/12/25 07:49:10;;;;;;;10.70;4.60;;;;;;;;;;103578;1307;24176;-83
2022/12/25 07:51:37;;;;;;;13.90;4.00;;;;;;;;;;103466;1302;24484;-80
2022/12/25 07:54:03;;;;;;;12.30;3.90;;;;;;;;;;103546;1307;25217;-83
2022/12/25 07:56:30;;;;;;;11.50;4.20;;;;;;;;;;103373;1307;22485;-79
2022/12/25 07:58:56;;;;;;;13.60;4.70;;;;;;;;;;103518;1304;24664;-80
2022/12/25 08:01:25;;;;;;;13.60;4.30;;;;;;;;;;103604;1304;25397;-81
2022/12/25 08:03:53;;;;;;;11.40;4.60;;;;;;;;;;103697;1304;25313;-79
2022/12/25 08:06:21;;;;;;;14.00;4.60;;;;;;;;;;103805;1304;22462;-81
2022/12/25 08:08:47;;;;;;;12.30;4.50;;;;;;;;;;103514;1303;22478;-81
2022/12/25 08:11:14;;;;;;;12.60;4.80;;;;;;;;;;103416;1307;22466;-85
2022/12/25 08:13:41;;;;;;;14.30;4.80;;;;;;;;;;103287;1307;24000;-82
2022/12/25 08:16:09;;;;;;;14.40;5.10;;;;;;;;;;103433;1307;23886;-79
2022/12/25 08:18:36;;;;;;;11.50;4.40;;;;;;;;;;103558;1304;22464;-83
2022/12/25 08:21:08;;;;;;;15.00;4.80;;;;;;;;;;103508;1304;22484;-83
2022/12/25 08:23:35;;;;;;;12.00;4.30;;;;;;;;;;103526;1304;24214;-85
2022/12/25 08:26:02;;;;;;;11.70;4.20;;;;;;;;;;103813;1304;22477;-83
2022/12/25 08:28:29;;;;;;;12.80;5.30;;;;;;;;;;103815;1304;24394;-79
2022/12/25 08:30:56;;;;;;;12.70;4.30;;;;;;;;;;103492;1307;26503;-80
2022/12/25 08:33:23;;;;;;;12.90;3.90;;;;;;;;;;103466;1307;24071;-83
2022/12/25 08:35:49;;;;;;;15.10;4.20;;;;;;;;;;103520;1307;22515;-80
2022/12/25 08:38:16;;;;;;;13.00;4.20;;;;;;;;;;103414;1294;22588;-85
2022/12/25 08:40:43;;;;;;;13.20;4.10;;;;;;;;;;103489;1304;25247;-82
2022/12/25 08:43:10;;;;;;;12.80;4.40;;;;;;;;;;103614;1304;24310;-79
2022/12/25 08:45:36;;;;;;;14.00;4.50;;;;;;;;;;103552;1304;24215;-81
2022/12/25 08:48:03;;;;;;;15.10;5.30;;;;;;;;;;103667;1304;22627;-79
2022/12/25 08:50:30;;;;;;;14.70;5.10;;;;;;;;;;103458;1307;22533;-79
2022/12/25 08:52:57;;;;;;;13.40;4.60;;;;;;;;;;103472;1307;22473;-80
2022/12/25 08:55:24;;;;;;;12.30;4.00;;;;;;;;;;103503;1307;22472;-84
2022/12/25 08:57:51;;;;;;;20.00;7.30;;;;;;;;;;103489;1305;22465;-83
2022/12/25 09:00:18;;;;;;;18.80;6.40;;;;;;;;;;103523;1302;22480;-85
2022/12/25 09:02:44;;;;;;;15.60;5.90;;;;;;;;;;103587;1304;22465;-82
2022/12/25 09:05:11;;;;;;;26.80;9.00;;;;;;;;;;103533;1304;22431;-81
2022/12/25 09:07:38;;;;;;;28.00;10.60;;;;;;;;;;103603;1304;23472;-82
2022/12/25 09:10:05;;;;;;;25.60;8.80;;;;;;;;;;103504;1307;25353;-82
2022/12/25 09:12:32;;;;;;;27.60;10.10;;;;;;;;;;103656;1307;24391;-81
2022/12/25 09:14:59;;;;;;;30.60;11.00;;;;;;;;;;103641;1307;22470;-78
2022/12/25 09:17:25;;;;;;;26.50;9.40;;;;;;;;;;103461;1292;22460;-84
2022/12/25 09:19:52;;;;;;;30.00;9.60;;;;;;;;;;103476;1296;22880;-79
2022/12/25 09:22:18;;;;;;;22.00;7.60;;;;;;;;;;103578;1299;22705;-78
2022/12/25 09:24:45;;;;;;;23.50;8.80;;;;;;;;;;103559;1299;22481;-79
2022/12/25 09:27:12;;;;;;;22.60;7.60;;;;;;;;;;103573;1307;22469;-81
2022/12/25 09:29:39;;;;;;;22.60;8.40;;;;;;;;;;103551;1304;21844;-77
2022/12/25 09:32:06;;;;;;;27.40;9.50;;;;;;;;;;103460;1307;24237;-80
2022/12/25 09:34:33;;;;;;;23.90;8.50;;;;;;;;;;103479;1306;22465;-82
2022/12/25 09:36:59;;;;;;;17.50;6.40;;;;;;;;;;103529;1307;26478;-77
2022/12/25 09:39:26;;;;;;;18.90;6.50;;;;;;;;;;103440;1307;25617;-82
2022/12/25 09:41:59;;;;;;;19.80;6.90;;;;;;;;;;103620;1304;22544;-82
2022/12/25 09:44:27;;;;;;;16.60;5.80;;;;;;;;;;103727;1289;24206;-76
2022/12/25 09:47:04;;;;;;;16.90;6.60;;;;;;;;;;103612;1304;22490;-82
2022/12/25 09:49:47;;;;;;;21.50;7.80;;;;;;;;;;103752;1304;22458;-81
2022/12/25 09:52:17;;;;;;;18.50;7.40;;;;;;;;;;103496;1282;22471;-81
2022/12/25 09:54:49;;;;;;;21.90;8.50;;;;;;;;;;103288;1283;25248;-80
2022/12/25 09:57:15;;;;;;;20.00;7.20;;;;;;;;;;103650;1307;25636;-83
2022/12/25 09:59:43;;;;;;;17.40;7.30;;;;;;;;;;103435;1307;24208;-80
2022/12/25 10:02:30;;;;;;;17.70;7.10;;;;;;;;;;103570;1304;24206;-79
2022/12/25 10:04:59;;;;;;;16.40;7.20;;;;;;;;;;103592;1299;22466;-83
2022/12/25 10:07:29;;;;;;;17.70;6.60;;;;;;;;;;103760;1304;26504;-83
2022/12/25 10:09:59;;;;;;;17.30;7.10;;;;;;;;;;103556;1304;22491;-78
2022/12/25 10:12:34;;;;;;;19.20;7.10;;;;;;;;;;103473;1282;24080;-78
2022/12/25 10:15:20;;;;;;;17.90;6.80;;;;;;;;;;103568;1305;22477;-83
2022/12/25 10:17:59;;;;;;;18.00;7.00;;;;;;;;;;103516;1307;26613;-82
2022/12/25 10:20:37;;;;;;;14.70;6.10;;;;;;;;;;103610;1299;22429;-78
2022/12/25 10:23:08;;;;;;;15.10;5.50;;;;;;;;;;103794;1304;22468;-77
2022/12/25 10:25:35;;;;;;;14.00;5.70;;;;;;;;;;103521;1305;22507;-83
2022/12/25 10:28:10;;;;;;;14.90;6.10;;;;;;;;;;103768;1304;22461;-79
2022/12/25 10:30:38;;;;;;;14.30;6.10;;;;;;;;;;103573;1304;25335;-81
2022/12/25 10:33:05;;;;;;;13.60;6.10;;;;;;;;;;103467;1306;22541;-81
2022/12/25 10:35:32;;;;;;;18.30;7.10;;;;;;;;;;103484;1285;22475;-80
2022/12/25 10:38:00;;;;;;;16.10;6.30;;;;;;;;;;103460;1307;22479;-81
2022/12/25 10:40:30;;;;;;;19.90;6.80;;;;;;;;;;103555;1301;22446;-77
2022/12/25 10:43:03;;;;;;;24.10;8.30;;;;;;;;;;103728;1304;25287;-81
2022/12/25 10:45:30;;;;;;;28.30;9.10;;;;;;;;;;103797;1304;23889;-79
2022/12/25 10:48:02;;;;;;;26.60;10.00;;;;;;;;;;103761;1304;22485;-83
2022/12/25 10:50:32;;;;;;;23.20;8.90;;;;;;;;;;103615;1304;22535;-81
2022/12/25 10:53:01;;;;;;;25.10;9.40;;;;;;;;;;103487;1306;26500;-79
2022/12/25 10:55:28;;;;;;;23.10;9.90;;;;;;;;;;103593;1305;25324;-84
2022/12/25 10:57:56;;;;;;;21.10;9.50;;;;;;;;;;103691;1281;22458;-81
2022/12/25 11:00:24;;;;;;;22.30;9.30;;;;;;;;;;103509;1287;22468;-77
2022/12/25 11:02:51;;;;;;;25.60;9.60;;;;;;;;;;103556;1285;25268;-76
2022/12/25 11:05:29;;;;;;;24.00;9.60;;;;;;;;;;103535;1290;22774;-80
2022/12/25 11:07:57;;;;;;;19.30;8.00;;;;;;;;;;103746;1297;24183;-80
2022/12/25 11:10:31;;;;;;;21.00;9.10;;;;;;;;;;103789;1290;25287;-79
2022/12/25 11:12:59;;;;;;;21.10;9.50;;;;;;;;;;103544;1300;25500;-81
2022/12/25 11:15:35;;;;;;;23.60;10.00;;;;;;;;;;103460;1300;22531;-82
2022/12/25 11:18:03;;;;;;;23.60;9.50;;;;;;;;;;103495;1300;22722;-78
2022/12/25 11:20:31;;;;;;;23.20;10.40;;;;;;;;;;103423;1307;24221;-80
2022/12/25 11:22:57;;;;;;;25.70;11.10;;;;;;;;;;103576;1304;25392;-76
2022/12/25 11:25:25;;;;;;;22.10;10.30;;;;;;;;;;103468;1304;22451;-80
2022/12/25 11:27:56;;;;;;;22.30;9.90;;;;;;;;;;103585;1304;22477;-79
2022/12/25 11:30:23;;;;;;;23.90;8.90;;;;;;;;;;103557;1304;25316;-78
2022/12/25 11:32:55;;;;;;;18.10;7.00;;;;;;;;;;103416;1307;25072;-77
2022/12/25 11:35:24;;;;;;;15.90;5.80;;;;;;;;;;103422;1306;22491;-76
2022/12/25 11:37:51;;;;;;;15.80;5.30;;;;;;;;;;103459;1285;22993;-76
2022/12/25 11:40:27;;;;;;;17.40;6.20;;;;;;;;;;103420;1292;22510;-76
2022/12/25 11:43:03;;;;;;;19.70;7.40;;;;;;;;;;103460;1305;22552;-79
2022/12/25 11:45:33;;;;;;;21.90;9.70;;;;;;;;;;103538;1305;22467;-75
2022/12/25 11:48:03;;;;;;;21.90;9.40;;;;;;;;;;103526;1307;22481;-78
2022/12/25 11:50:35;;;;;;;22.50;10.00;;;;;;;;;;103502;1288;25311;-76
2022/12/25 11:58:20;;;;;;;16.50;6.70;;;;;;;;;;100459;1335;546509;-79
2022/12/25 12:00:48;;;;;;;15.60;7.00;;;;;;;;;;103433;1310;22458;-77
2022/12/25 12:03:18;;;;;;;18.80;7.70;;;;;;;;;;103409;1301;25264;-76
2022/12/25 12:05:54;;;;;;;19.00;8.00;;;;;;;;;;103417;1311;24286;-77
2022/12/25 12:08:21;;;;;;;22.50;9.40;;;;;;;;;;103364;1308;24468;-82
2022/12/25 12:10:51;;;;;;;20.30;9.10;;;;;;;;;;102024;1302;1666456;-80
2022/12/25 12:13:27;;;;;;;20.30;8.60;;;;;;;;;;103401;1307;23700;-76
2022/12/25 12:15:54;;;;;;;18.30;7.70;;;;;;;;;;103243;1290;23595;-75
2022/12/25 12:18:27;;;;;;;18.20;8.00;;;;;;;;;;103422;1284;25330;-76
2022/12/25 12:21:02;;;;;;;18.50;8.00;;;;;;;;;;103516;1307;22605;-83
2022/12/25 12:23:32;;;;;;;20.10;8.30;;;;;;;;;;103519;1299;24417;-79
2022/12/25 12:25:58;;;;;;;17.40;7.00;;;;;;;;;;103470;1307;26526;-78
2022/12/25 12:28:27;;;;;;;13.50;5.20;;;;;;;;;;103436;1298;22469;-77
2022/12/25 12:31:05;;;;;;;15.10;5.20;;;;;;;;;;103435;1310;24241;-81
2022/12/25 12:33:34;;;;;;;16.70;5.90;;;;;;;;;;103404;1306;22465;-78
2022/12/25 12:36:02;;;;;;;14.30;5.10;;;;;;;;;;103429;1299;22588;-78
2022/12/25 12:38:30;;;;;;;13.50;5.00;;;;;;;;;;103403;1307;24215;-75
2022/12/25 12:41:13;;;;;;;13.60;4.80;;;;;;;;;;100155;1342;545999;-83
2022/12/25 12:43:46;;;;;;;12.30;4.80;;;;;;;;;;102273;1319;22682;-79
2022/12/25 12:46:19;;;;;;;11.70;4.50;;;;;;;;;;102388;1307;22484;-80
2022/12/25 12:48:54;;;;;;;13.70;4.20;;;;;;;;;;102328;1319;25226;-78
2022/12/25 12:51:29;;;;;;;12.80;4.80;;;;;;;;;;102382;1319;22636;-80
2022/12/25 12:54:23;;;;;;;12.20;5.00;;;;;;;;;;101044;1308;1531743;-80
2022/12/25 12:56:57;;;;;;;16.90;6.40;;;;;;;;;;102578;1316;22470;-80
2022/12/25 12:59:24;;;;;;;12.00;4.60;;;;;;;;;;103444;1303;22469;-77
2022/12/25 13:02:03;;;;;;;16.00;5.70;;;;;;;;;;103397;1307;24253;-80
2022/12/25 13:04:36;;;;;;;16.60;6.40;;;;;;;;;;103442;1306;22438;-75
2022/12/25 13:07:03;;;;;;;13.70;5.00;;;;;;;;;;103417;1306;22586;-77
2022/12/25 13:09:30;;;;;;;18.30;7.80;;;;;;;;;;103413;1306;25688;-79
2022/12/25 13:11:57;;;;;;;23.00;8.60;;;;;;;;;;103424;1301;24311;-76
2022/12/25 13:14:24;;;;;;;24.20;8.90;;;;;;;;;;103443;1306;22598;-83
2022/12/25 13:16:52;;;;;;;17.70;7.30;;;;;;;;;;103334;1306;24245;-77
2022/12/25 13:19:24;;;;;;;20.60;7.40;;;;;;;;;;103435;1292;25443;-76
2022/12/25 13:21:56;;;;;;;18.10;6.90;;;;;;;;;;103434;1306;24332;-79
2022/12/25 13:24:24;;;;;;;17.90;6.50;;;;;;;;;;103448;1296;23076;-76
2022/12/25 13:26:51;;;;;;;15.70;8.00;;;;;;;;;;103269;1307;22461;-78
2022/12/25 13:29:29;;;;;;;16.90;5.90;;;;;;;;;;103449;1299;25479;-76
2022/12/25 13:32:00;;;;;;;18.70;6.60;;;;;;;;;;103286;1306;22535;-77
2022/12/25 13:34:29;;;;;;;14.90;6.20;;;;;;;;;;103245;1306;22475;-74
2022/12/25 13:37:06;;;;;;;18.10;6.30;;;;;;;;;;103480;1306;23917;-76
2022/12/25 13:39:33;;;;;;;22.50;7.20;;;;;;;;;;103453;1307;24182;-80
2022/12/25 13:42:08;;;;;;;19.00;6.60;;;;;;;;;;103279;1308;22545;-79
2022/12/25 13:44:35;;;;;;;18.30;5.90;;;;;;;;;;103353;1307;22489;-80
2022/12/25 13:47:15;;;;;;;16.80;5.00;;;;;;;;;;103447;1307;24340;-82
2022/12/25 13:49:44;;;;;;;20.50;7.90;;;;;;;;;;103279;1308;22473;-79
2022/12/25 13:52:12;;;;;;;20.00;7.10;;;;;;;;;;103382;1306;22718;-80
2022/12/25 13:54:50;;;;;;;16.60;6.50;;;;;;;;;;103455;1306;24275;-76
2022/12/25 13:57:17;;;;;;;18.40;6.60;;;;;;;;;;103326;1306;22481;-77
2022/12/25 13:59:44;;;;;;;16.70;5.80;;;;;;;;;;103308;1306;22491;-76
2022/12/25 14:02:17;;;;;;;16.10;5.60;;;;;;;;;;103392;1307;24946;-78
2022/12/25 14:04:44;;;;;;;18.40;6.00;;;;;;;;;;103367;1307;22540;-79
2022/12/25 14:07:11;;;;;;;18.90;6.90;;;;;;;;;;103365;1307;27001;-79
2022/12/25 14:09:39;;;;;;;23.80;8.60;;;;;;;;;;103317;1306;22480;-78
2022/12/25 14:12:06;;;;;;;25.50;9.90;;;;;;;;;;103257;1306;24305;-82
2022/12/25 14:14:35;;;;;;;22.20;8.80;;;;;;;;;;103456;1306;25334;-80
2022/12/25 14:17:02;;;;;;;26.10;10.40;;;;;;;;;;103451;1291;25240;-79
2022/12/25 14:19:30;;;;;;;29.00;11.70;;;;;;;;;;103282;1306;24283;-79
2022/12/25 14:21:59;;;;;;;26.10;9.40;;;;;;;;;;103379;1306;23890;-79
2022/12/25 14:24:27;;;;;;;25.50;9.30;;;;;;;;;;103270;1308;25334;-75
2022/12/25 14:27:01;;;;;;;20.00;8.20;;;;;;;;;;103389;1307;24309;-77
2022/12/25 14:29:35;;;;;;;19.10;7.80;;;;;;;;;;103454;1291;23885;-75
2022/12/25 14:32:03;;;;;;;19.60;9.40;;;;;;;;;;103237;1307;23839;-75
2022/12/25 14:34:31;;;;;;;25.90;9.70;;;;;;;;;;103135;1306;22470;-77
2022/12/25 14:36:58;;;;;;;25.20;10.80;;;;;;;;;;103397;1306;25316;-78
2022/12/25 14:39:33;;;;;;;33.50;12.40;;;;;;;;;;103459;1306;22594;-78
2022/12/25 14:42:01;;;;;;;29.80;11.90;;;;;;;;;;103441;1306;23984;-76
2022/12/25 14:44:37;;;;;;;28.90;11.70;;;;;;;;;;103440;1306;21710;-75
2022/12/25 14:47:15;;;;;;;33.50;13.00;;;;;;;;;;103382;1306;22461;-81
2022/12/25 14:49:42;;;;;;;42.50;13.50;;;;;;;;;;103189;1296;24234;-79
2022/12/25 14:52:08;;;;;;;35.30;13.30;;;;;;;;;;103441;1277;25300;-76
2022/12/25 14:54:35;;;;;;;38.20;13.10;;;;;;;;;;103415;1285;24265;-78
2022/12/25 14:57:02;;;;;;;35.50;12.20;;;;;;;;;;103399;1306;25520;-81
2022/12/25 14:59:29;;;;;;;32.20;11.50;;;;;;;;;;103433;1306;22464;-78
2022/12/25 15:01:58;;;;;;;25.20;10.60;;;;;;;;;;103292;1306;22467;-81
2022/12/25 15:04:25;;;;;;;27.40;10.70;;;;;;;;;;103460;1306;25309;-81
2022/12/25 15:06:52;;;;;;;29.50;11.40;;;;;;;;;;103473;1306;24200;-79
2022/12/25 15:09:19;;;;;;;28.40;11.00;;;;;;;;;;103434;1306;22432;-81
2022/12/25 15:11:50;;;;;;;30.20;10.90;;;;;;;;;;103427;1307;22553;-77
2022/12/25 15:14:17;;;;;;;37.70;11.40;;;;;;;;;;103448;1299;22460;-81
2022/12/25 15:16:45;;;;;;;30.30;11.50;;;;;;;;;;103492;1306;22750;-80
2022/12/25 15:19:16;;;;;;;31.60;11.70;;;;;;;;;;103505;1306;25396;-77
2022/12/25 15:21:43;;;;;;;28.50;10.70;;;;;;;;;;103469;1306;25301;-79
2022/12/25 15:24:13;;;;;;;27.80;10.60;;;;;;;;;;103406;1307;22465;-76
2022/12/25 15:26:40;;;;;;;23.30;8.80;;;;;;;;;;103252;1302;22877;-78
2022/12/25 15:29:07;;;;;;;26.00;9.50;;;;;;;;;;103449;1306;25310;-79
2022/12/25 15:31:35;;;;;;;21.40;8.70;;;;;;;;;;103466;1301;22868;-76
2022/12/25 15:34:03;;;;;;;28.40;10.00;;;;;;;;;;103506;1305;22488;-79
2022/12/25 15:36:30;;;;;;;27.50;9.80;;;;;;;;;;103479;1289;23328;-76
2022/12/25 15:38:57;;;;;;;24.00;9.40;;;;;;;;;;103507;1292;22503;-78
2022/12/25 15:44:10;;;;;;;22.40;9.20;;;;;;;;;;103621;1289;22733;-76
2022/12/25 15:46:37;;;;;;;23.50;9.00;;;;;;;;;;103164;1286;22465;-77
2022/12/25 15:49:04;;;;;;;23.60;8.60;;;;;;;;;;103457;1299;22541;-79
2022/12/25 15:51:31;;;;;;;24.30;8.10;;;;;;;;;;103430;1286;24241;-76
2022/12/25 15:53:58;;;;;;;23.50;8.50;;;;;;;;;;103420;1291;24286;-75
2022/12/25 15:56:25;;;;;;;25.40;10.10;;;;;;;;;;103407;1306;24324;-76
2022/12/25 15:58:52;;;;;;;31.50;12.00;;;;;;;;;;103441;1301;24891;-77
2022/12/25 16:01:19;;;;;;;27.40;12.20;;;;;;;;;;103418;1303;24256;-77
2022/12/25 16:03:46;;;;;;;32.50;13.50;;;;;;;;;;103417;1306;25315;-75
2022/12/25 16:06:17;;;;;;;36.80;13.90;;;;;;;;;;103321;1307;22507;-79
2022/12/25 16:08:44;;;;;;;34.60;13.80;;;;;;;;;;106714;1302;22075;-74
2022/12/25 16:11:11;;;;;;;30.30;12.60;;;;;;;;;;106875;1306;22839;-74
2022/12/25 16:13:38;;;;;;;25.90;11.00;;;;;;;;;;106832;1305;22127;-74
2022/12/25 16:16:05;;;;;;;29.10;11.70;;;;;;;;;;106873;1306;22182;-74